Data for 01/10/2006

Time Sea-Level Adjusted Pressure Absolute Pressure Temperature Relative Humidity Dew Point   
(mb) (inHg) (mb) (inHg) (C) (F) (%) (C) (F)
00:05 1017 30.03 846 24.98 0.2 32.4 56 -7.6 18.3
00:10 1017 30.03 846 24.98 0.5 32.9 57 -7.1 19.2
00:15 1017 30.03 846 24.98 0 32.1 56 -7.7 18.2
00:20 1017 30.03 846 24.98 0.5 33 57 -7.1 19.2
00:25 1017 30.03 846 24.98 -0.4 31.2 65 -6.1 21
00:30 1017 30.03 846 24.98 -1.6 29.1 68 -6.8 19.8
00:35 1017 30.03 846 24.98 -1.3 29.6 63 -7.6 18.4
00:40 1017 30.03 846 24.98 -0.6 31 62 -7 19.3
00:45 1017 30.03 846 24.98 -0.4 31.2 60 -7.3 18.8
00:50 1017 30.03 846 24.98 -0 31.9 58 -7.3 18.8
00:55 1017 30.03 846 24.98 0.1 32.2 58 -7.2 19
01:00 1017 30.03 846 24.98 -0.1 31.8 60 -7 19.5
01:05 1016 30 846 24.98 -0.5 31.2 60 -7.3 18.9
01:10 1016 30 845 24.95 -0.4 31.2 60 -7.2 19.1
01:15 1016 30 845 24.95 -0.8 30.6 62 -7.3 18.9
01:20 1016 30 845 24.95 -0.3 31.5 56 -8 17.6
01:25 1016 30 845 24.95 0.5 32.9 54 -7.7 18.2
01:30 1016 30 846 24.98 0.9 33.5 55 -7.1 19.2
01:35 1016 30 845 24.95 0.6 33.1 55 -7.4 18.6
01:40 1016 30 846 24.98 0.5 32.9 58 -6.9 19.7
01:45 1016 30 846 24.98 0.4 32.6 56 -7.5 18.4
01:50 1016 30 845 24.95 0.4 32.7 58 -7 19.4
01:55 1016 30 845 24.95 0.4 32.6 55 -7.6 18.4
02:00 1016 30 845 24.95 0.6 33.1 57 -7 19.4
02:05 1016 30 845 24.95 -0.5 31.2 62 -6.9 19.6
02:10 1016 30 845 24.95 -1.4 29.4 66 -7 19.3
02:15 1016 30 845 24.95 -1.5 29.3 63 -7.7 18.1
02:20 1016 30 845 24.95 -1.1 30 62 -7.5 18.4
02:25 1016 30 845 24.95 -0.9 30.4 61 -7.6 18.3
02:30 1016 30 845 24.95 -0.7 30.7 62 -7.2 19
02:35 1016 30 845 24.95 -0.2 31.6 57 -7.6 18.3
02:40 1016 30 845 24.95 -0.2 31.6 60 -7 19.4
02:45 1016 30 845 24.95 -1.4 29.5 65 -7.2 19
02:50 1016 30 845 24.95 -1.7 28.9 65 -7.5 18.5
02:55 1016 30 845 24.95 -1.7 29 66 -7.2 19
03:00 1015 29.97 845 24.95 -2.4 27.6 69 -7.4 18.7
03:05 1015 29.97 845 24.95 -2.5 27.5 68 -7.6 18.4
03:10 1015 29.97 845 24.95 -2.1 28.3 66 -7.5 18.5
03:15 1015 29.97 845 24.95 -1.4 29.4 64 -7.3 18.8
03:20 1015 29.97 845 24.95 -1.1 30.1 64 -7 19.3
03:25 1015 29.97 845 24.95 -1.2 29.9 65 -6.9 19.5
03:30 1015 29.97 844 24.92 -1.8 28.8 67 -7.1 19.3
03:35 1015 29.97 844 24.92 -2 28.3 69 -7.1 19.3
03:40 1015 29.97 844 24.92 -2 28.4 69 -7 19.4
03:45 1015 29.97 844 24.92 -1.7 28.9 67 -7 19.4
03:50 1015 29.97 844 24.92 -1.5 29.3 66 -7 19.5
03:55 1015 29.97 844 24.92 -1.1 30 66 -6.8 19.8
04:00 1015 29.97 844 24.92 -1.1 30 65 -6.9 19.5
04:05 1015 29.97 844 24.92 -0.7 30.7 62 -7.1 19.2
04:10 1015 29.97 844 24.92 -0.4 31.3 63 -6.6 20
04:15 1015 29.97 844 24.92 -0.6 30.9 63 -6.9 19.7
04:20 1014 29.94 844 24.92 -0.8 30.6 64 -6.6 20
04:25 1014 29.94 844 24.92 -1 30.2 65 -6.8 19.7
04:30 1014 29.94 843 24.89 -0.7 30.8 65 -6.5 20.3
04:35 1014 29.94 843 24.89 -1.1 30 67 -6.6 20.2
04:40 1014 29.94 843 24.89 -1.3 29.6 69 -6.3 20.6
04:45 1014 29.94 843 24.89 -1.3 29.7 67 -6.7 20
04:50 1014 29.94 843 24.89 -1.2 29.8 68 -6.4 20.5
04:55 1014 29.94 843 24.89 -1 30.3 66 -6.5 20.3
05:00 1014 29.94 843 24.89 -0.9 30.5 66 -6.4 20.4
05:05 1014 29.94 843 24.89 -0.7 30.8 65 -6.4 20.5
05:10 1014 29.94 843 24.89 -0.5 31.1 65 -6.2 20.8
05:15 1014 29.94 843 24.89 -0.2 31.6 63 -6.5 20.4
05:20 1014 29.94 843 24.89 -0 32 64 -5.9 21.3
05:25 1014 29.94 843 24.89 -0.2 31.6 65 -6.1 21
05:30 1014 29.94 843 24.89 -0.3 31.4 66 -5.8 21.5
05:35 1014 29.94 843 24.89 -0.2 31.6 65 -6.1 21.1
05:40 1014 29.94 843 24.89 -0.2 31.6 66 -5.8 21.5
05:45 1014 29.94 843 24.89 -0.1 31.7 65 -5.9 21.4
05:50 1014 29.94 843 24.89 0.2 32.3 62 -6.2 20.9
05:55 1014 29.94 843 24.89 1.1 34 59 -6 21.2
06:00 1014 29.94 843 24.89 1.5 34.7 58 -5.8 21.5
06:05 1014 29.94 843 24.89 1.7 35 58 -5.8 21.6
06:10 1013 29.91 843 24.89 1.3 34.4 61 -5.4 22.3
06:15 1013 29.91 843 24.89 0.6 33 63 -5.6 21.9
06:20 1013 29.91 842 24.86 0.5 33 63 -5.7 21.7
06:25 1013 29.91 842 24.86 0.4 32.7 65 -5.5 22.1
06:30 1013 29.91 842 24.86 0.2 32.4 65 -5.5 22
06:35 1013 29.91 842 24.86 0.4 32.8 64 -5.5 22.1
06:40 1013 29.91 842 24.86 0.4 32.7 65 -5.4 22.3
06:45 1013 29.91 842 24.86 0.2 32.4 64 -5.7 21.7
06:50 1013 29.91 842 24.86 0.6 33 66 -5 23
06:55 1013 29.91 842 24.86 0.3 32.6 65 -5.4 22.3
07:00 1013 29.91 842 24.86 0.2 32.3 68 -5.1 22.9
07:05 1013 29.91 842 24.86 0.1 32.2 66 -5.4 22.3
07:10 1013 29.91 842 24.86 0.4 32.7 65 -5.3 22.4
07:15 1013 29.91 842 24.86 0.5 33 65 -5.4 22.3
07:20 1013 29.91 842 24.86 0.5 33 65 -5.3 22.5
07:25 1013 29.91 842 24.86 0.6 33.2 64 -5.3 22.4
07:30 1013 29.91 842 24.86 0.8 33.5 63 -5.4 22.4
07:35 1013 29.91 842 24.86 0.8 33.4 64 -5.3 22.5
07:40 1013 29.91 842 24.86 0.8 33.4 63 -5.5 22.1
07:45 1013 29.91 842 24.86 1.3 34.3 59 -6 21.2
07:50 1012 29.88 842 24.86 1.6 34.9 61 -5.1 22.9
07:55 1012 29.88 842 24.86 1.2 34.1 63 -5.1 22.9
08:00 1012 29.88 842 24.86 0.8 33.4 64 -5.3 22.5
08:05 1012 29.88 841 24.83 0.7 33.3 65 -5.2 22.7
08:10 1012 29.88 841 24.83 0.6 33.1 65 -5.3 22.5
08:15 1012 29.88 841 24.83 0.9 33.6 63 -5.4 22.2
08:20 1012 29.88 841 24.83 1 33.8 62 -5.4 22.2
08:25 1012 29.88 841 24.83 1.1 33.9 63 -5.2 22.6
08:30 1012 29.88 841 24.83 1 33.8 64 -5.1 22.8
08:35 1012 29.88 841 24.83 0.9 33.5 64 -5.3 22.5
08:40 1012 29.88 841 24.83 0.9 33.6 63 -5.4 22.2
08:45 1012 29.88 841 24.83 0.9 33.6 64 -5.1 22.9
08:50 1012 29.88 841 24.83 1.1 34 64 -5 23
08:55 1012 29.88 841 24.83 1.2 34.2 62 -5.3 22.5
09:00 1012 29.88 841 24.83 1.3 34.4 61 -5.3 22.4
09:05 1012 29.88 841 24.83 1.5 34.7 60 -5.5 22.1
09:10 1012 29.88 841 24.83 1.5 34.7 62 -5 23.1
09:15 1012 29.88 841 24.83 1.4 34.5 64 -4.7 23.6
09:20 1012 29.88 841 24.83 1.2 34.2 65 -4.6 23.7
09:25 1012 29.88 841 24.83 1.4 34.6 64 -4.6 23.8
09:30 1012 29.88 841 24.83 1.6 34.8 65 -4.3 24.3
09:35 1012 29.88 841 24.83 1.6 34.9 63 -4.8 23.4
09:40 1012 29.88 841 24.83 1.9 35.4 62 -4.6 23.7
09:45 1012 29.88 841 24.83 1.9 35.4 65 -4 24.9
09:50 1012 29.88 841 24.83 1.9 35.4 62 -4.6 23.8
09:55 1012 29.88 842 24.86 1.8 35.2 63 -4.5 23.9
10:00 1012 29.88 841 24.83 2 35.6 59 -5.1 22.8
10:05 1012 29.88 841 24.83 2.7 36.9 59 -4.4 24
10:10 1012 29.88 841 24.83 2.9 37.3 62 -3.7 25.4
10:15 1012 29.88 841 24.83 2.6 36.6 63 -3.8 25.2
10:20 1012 29.88 841 24.83 2.7 36.8 60 -4.3 24.2
10:25 1012 29.88 841 24.83 3 37.4 61 -3.7 25.3
10:30 1012 29.88 841 24.83 2.6 36.7 63 -3.8 25.1
10:35 1012 29.88 841 24.83 2.6 36.8 63 -3.7 25.3
10:40 1012 29.88 841 24.83 2.9 37.3 61 -3.8 25.2
10:45 1012 29.88 841 24.83 4 39.1 56 -3.9 24.9
10:50 1012 29.88 841 24.83 4.5 40 54 -4 24.9
10:55 1012 29.88 841 24.83 4.5 40 53 -4.2 24.5
11:00 1012 29.88 841 24.83 4.4 40 54 -4.2 24.4
11:05 1012 29.88 841 24.83 4.4 40 54 -4 24.9
11:10 1012 29.88 841 24.83 4.4 40 54 -4 24.8
11:15 1011 29.85 841 24.83 4.6 40.3 54 -3.9 24.9
11:20 1011 29.85 840 24.81 4.8 40.7 54 -3.8 25.2
11:25 1011 29.85 840 24.81 5 41.1 53 -3.7 25.3
11:30 1011 29.85 840 24.81 5.1 41.2 53 -3.6 25.5
11:35 1011 29.85 840 24.81 4.8 40.7 56 -3.2 26.3
11:40 1011 29.85 840 24.81 3.9 39 58 -3.5 25.7
11:45 1011 29.85 840 24.81 3.5 38.3 61 -3.4 26
11:50 1011 29.85 840 24.81 3.6 38.4 60 -3.5 25.6
11:55 1011 29.85 840 24.81 4.2 39.5 58 -3.3 26.1
12:00 1011 29.85 840 24.81 4.5 40.1 58 -3.1 26.4
12:05 1010 29.83 840 24.81 4 39.2 59 -3.2 26.2
12:10 1010 29.83 840 24.81 4 39.2 60 -3.2 26.3
12:15 1010 29.83 839 24.78 4.1 39.4 60 -2.9 26.8
12:20 1010 29.83 839 24.78 4.1 39.4 58 -3.4 25.9
12:25 1010 29.83 839 24.78 4.4 39.9 57 -3.5 25.7
12:30 1010 29.83 839 24.78 5.5 41.9 51 -3.8 25.2
12:35 1010 29.83 839 24.78 6 42.8 50 -3.8 25.2
12:40 1010 29.83 839 24.78 6.3 43.3 49 -3.5 25.6
12:45 1010 29.83 839 24.78 6.2 43.2 49 -3.6 25.5
12:50 1009 29.8 839 24.78 6.2 43.1 48 -3.9 25
12:55 1009 29.8 839 24.78 6.6 43.9 49 -3.4 25.9
13:00 1009 29.8 838 24.75 6.5 43.7 49 -3.5 25.8
13:05 1009 29.8 838 24.75 6.6 43.9 47 -4 24.8
13:10 1009 29.8 839 24.78 6.9 44.4 44 -4.4 24.1
13:15 1009 29.8 838 24.75 6.8 44.3 47 -3.8 25.1
13:20 1009 29.8 838 24.75 6.8 44.3 45 -4.2 24.4
13:25 1009 29.8 838 24.75 7 44.5 47 -3.7 25.4
13:30 1009 29.8 838 24.75 6.9 44.3 47 -3.6 25.5
13:35 1009 29.8 838 24.75 6.7 44.1 47 -3.8 25.1
13:40 1009 29.8 838 24.75 6.7 44.1 47 -3.8 25.2
13:45 1009 29.8 838 24.75 6.7 44 48 -3.6 25.6
13:50 1009 29.8 838 24.75 6.8 44.2 47 -3.6 25.5
13:55 1009 29.8 838 24.75 6.6 43.9 48 -3.6 25.6
14:00 1009 29.8 838 24.75 6.5 43.8 48 -3.5 25.6
14:05 1009 29.8 838 24.75 6.6 43.8 46 -4.1 24.6
14:10 1009 29.8 838 24.75 6.6 43.9 47 -4 24.8
14:15 1009 29.8 838 24.75 6.8 44.3 44 -4.7 23.6
14:20 1009 29.8 838 24.75 7 44.5 45 -4.2 24.4
14:25 1009 29.8 838 24.75 6.9 44.4 44 -4.4 24
14:30 1009 29.8 838 24.75 6.7 44.1 48 -3.6 25.5
14:35 1009 29.8 838 24.75 6.3 43.3 50 -3.4 25.8
14:40 1009 29.8 838 24.75 6.2 43.2 48 -4 24.8
14:45 1009 29.8 838 24.75 6.7 44.1 45 -4.4 24.1
14:50 1009 29.8 838 24.75 7.1 44.8 46 -3.6 25.5
14:55 1009 29.8 838 24.75 7 44.5 46 -4 24.8
15:00 1009 29.8 838 24.75 6.8 44.3 46 -4 24.9
15:05 1009 29.8 838 24.75 6.8 44.2 46 -4.1 24.5
15:10 1009 29.8 838 24.75 6.7 44.1 45 -4.3 24.3
15:15 1009 29.8 838 24.75 6.6 43.9 48 -3.5 25.7
15:20 1009 29.8 838 24.75 6.7 44.1 46 -4.1 24.6
15:25 1009 29.8 838 24.75 6.9 44.3 47 -3.7 25.3
15:30 1009 29.8 838 24.75 6.8 44.2 47 -3.8 25.2
15:35 1009 29.8 838 24.75 6.9 44.3 46 -3.8 25.1
15:40 1009 29.8 838 24.75 6.9 44.5 46 -3.9 24.9
15:45 1009 29.8 838 24.75 7.2 45 45 -4 24.8
15:50 1009 29.8 838 24.75 7.2 45 43 -4.5 23.9
15:55 1009 29.8 838 24.75 7.3 45.1 43 -4.3 24.2
16:00 1009 29.8 839 24.78 7.3 45.1 43 -4.6 23.8
16:05 1009 29.8 839 24.78 7.4 45.3 42 -4.6 23.7
16:10 1009 29.8 838 24.75 7.6 45.7 44 -4 24.9
16:15 1009 29.8 838 24.75 7.4 45.4 44 -4 24.9
16:20 1009 29.8 838 24.75 7.3 45.1 43 -4.4 24.1
16:25 1009 29.8 838 24.75 7.2 44.9 45 -4.1 24.7
16:30 1009 29.8 838 24.75 7.1 44.8 43 -4.6 23.7
16:35 1009 29.8 838 24.75 7.3 45.1 45 -3.7 25.3
16:40 1009 29.8 838 24.75 7.1 44.8 45 -4.1 24.7
16:45 1009 29.8 838 24.75 7 44.7 46 -3.7 25.3
16:50 1009 29.8 839 24.78 6.8 44.2 47 -3.9 25
16:55 1009 29.8 839 24.78 6.3 43.4 50 -3.2 26.3
17:00 1009 29.8 839 24.78 5.9 42.6 53 -2.9 26.8
17:05 1009 29.8 839 24.78 5.8 42.5 49 -4 24.8
17:10 1009 29.8 839 24.78 6.2 43.2 48 -3.9 24.9
17:15 1009 29.8 839 24.78 6.4 43.6 45 -4.5 23.9
17:20 1009 29.8 839 24.78 6.8 44.2 47 -3.6 25.5
17:25 1009 29.8 839 24.78 6.4 43.4 51 -3.2 26.3
17:30 1009 29.8 838 24.75 6.2 43.2 50 -3.5 25.6
17:35 1009 29.8 838 24.75 6.5 43.7 47 -4 24.8
17:40 1009 29.8 838 24.75 6.7 44.1 46 -4 24.9
17:45 1009 29.8 838 24.75 6.8 44.2 48 -3.6 25.5
17:50 1009 29.8 838 24.75 6.8 44.3 47 -3.7 25.3
17:55 1009 29.8 838 24.75 6.7 44 49 -3.4 26
18:00 1009 29.8 838 24.75 6.7 44 47 -3.8 25.1
18:05 1009 29.8 838 24.75 6.5 43.8 50 -3.1 26.4
18:10 1009 29.8 838 24.75 6.3 43.4 49 -3.5 25.7
18:15 1009 29.8 838 24.75 6.2 43.2 49 -3.5 25.6
18:20 1009 29.8 838 24.75 6.3 43.3 47 -4.3 24.2
18:25 1009 29.8 838 24.75 6.7 44 46 -4.3 24.3
18:30 1009 29.8 838 24.75 6.6 43.8 48 -3.6 25.6
18:35 1009 29.8 838 24.75 6.3 43.4 47 -4.3 24.3
18:40 1009 29.8 838 24.75 6.7 44.1 46 -4.1 24.6
18:45 1009 29.8 838 24.75 6.8 44.2 46 -4 24.9
18:50 1009 29.8 838 24.75 6.6 43.9 49 -3.2 26.2
18:55 1009 29.8 838 24.75 6.3 43.4 48 -3.8 25.2
19:00 1009 29.8 838 24.75 6.5 43.7 46 -4.2 24.4
19:05 1009 29.8 838 24.75 6.9 44.3 45 -4.3 24.3
19:10 1009 29.8 838 24.75 6.8 44.3 46 -4.1 24.7
19:15 1009 29.8 838 24.75 6.7 44 47 -3.7 25.3
19:20 1009 29.8 838 24.75 6.6 44 48 -3.6 25.4
19:25 1009 29.8 838 24.75 6.6 44 47 -3.8 25.2
19:30 1009 29.8 838 24.75 6.3 43.3 50 -3.3 26
19:35 1009 29.8 838 24.75 6.3 43.3 45 -4.7 23.6
19:40 1009 29.8 838 24.75 6.7 44 45 -4.4 24.1
19:45 1009 29.8 838 24.75 6.8 44.3 44 -4.4 24
19:50 1009 29.8 838 24.75 6.8 44.3 46 -4 24.8
19:55 1009 29.8 838 24.75 6.8 44.2 46 -4.1 24.6
20:00 1008 29.77 838 24.75 6.8 44.2 46 -4 24.9
20:05 1008 29.77 838 24.75 6.6 43.9 47 -3.9 25
20:10 1008 29.77 837 24.72 6.9 44.5 43 -4.7 23.6
20:15 1008 29.77 837 24.72 7.3 45.2 44 -4.2 24.4
20:20 1008 29.77 837 24.72 7.1 44.8 44 -4.2 24.4
20:25 1008 29.77 837 24.72 7.1 44.7 48 -3.3 26
20:30 1008 29.77 837 24.72 6.7 44 46 -4 24.7
20:35 1008 29.77 837 24.72 6.6 43.9 47 -3.8 25.1
20:40 1008 29.77 837 24.72 6.5 43.6 48 -3.7 25.3
20:45 1008 29.77 837 24.72 6.5 43.7 48 -3.6 25.6
20:50 1008 29.77 837 24.72 6.3 43.3 48 -4 24.8
20:55 1008 29.77 837 24.72 6.3 43.3 48 -4 24.8
21:00 1008 29.77 837 24.72 6.4 43.6 47 -4.2 24.4
21:05 1008 29.77 837 24.72 6.7 44 47 -3.9 25
21:10 1008 29.77 837 24.72 6.5 43.7 48 -3.8 25.2
21:15 1008 29.77 837 24.72 6.5 43.7 50 -3.2 26.2
21:20 1008 29.77 837 24.72 6.4 43.5 49 -3.5 25.7
21:25 1008 29.77 837 24.72 6.3 43.3 49 -3.6 25.6
21:30 1008 29.77 837 24.72 6.2 43.1 51 -3.3 26.1
21:35 1008 29.77 837 24.72 6 42.8 51 -3.2 26.2
21:40 1008 29.77 837 24.72 6 42.8 51 -3.4 25.8
21:45 1008 29.77 837 24.72 6.1 43.1 51 -3.1 26.3
21:50 1008 29.77 837 24.72 6.2 43.1 52 -3.1 26.5
21:55 1008 29.77 837 24.72 6 42.9 52 -3.1 26.4
22:00 1008 29.77 837 24.72 6 42.8 53 -2.9 26.7
22:05 1007 29.74 837 24.72 5.8 42.4 54 -2.7 27.1
22:10 1007 29.74 837 24.72 5.4 41.8 55 -2.9 26.8
22:15 1007 29.74 837 24.72 5 40.9 57 -2.8 27
22:20 1007 29.74 837 24.72 4.7 40.5 58 -2.9 26.7
22:25 1007 29.74 836 24.69 4.6 40.3 58 -2.8 26.9
22:30 1007 29.74 837 24.72 4.7 40.5 57 -3 26.5
22:35 1007 29.74 836 24.69 4.9 40.8 56 -3.1 26.4
22:40 1007 29.74 836 24.69 4.6 40.4 59 -2.8 27
22:45 1007 29.74 836 24.69 4.4 40 58 -3 26.6
22:50 1007 29.74 836 24.69 4.4 39.8 58 -3.1 26.4
22:55 1007 29.74 836 24.69 4.4 40 57 -3.3 26
23:00 1007 29.74 836 24.69 4.5 40.2 57 -3.1 26.4
23:05 1007 29.74 836 24.69 4.6 40.3 58 -3 26.6
23:10 1007 29.74 836 24.69 4.3 39.8 59 -3 26.7
23:15 1007 29.74 836 24.69 4.3 39.8 60 -2.8 26.9
23:20 1007 29.74 836 24.69 4.3 39.7 60 -2.9 26.8
23:25 1007 29.74 836 24.69 4.3 39.7 59 -3.1 26.5
23:30 1007 29.74 836 24.69 4.4 40 58 -3.1 26.5
23:35 1006 29.71 836 24.69 4.4 40 59 -2.8 26.9
23:40 1006 29.71 836 24.69 4.3 39.8 60 -2.9 26.9
23:45 1006 29.71 836 24.69 4.5 40.2 58 -3 26.7
23:50 1006 29.71 835 24.66 4.7 40.5 58 -2.8 26.9
23:55 1006 29.71 835 24.66 4.8 40.7 57 -2.9 26.7
24:00 1006 29.71 835 24.66 4.8 40.7 58 -2.7 27.1